Time;durP1;ratioP1;P1;durP2;ratioP2;P2;SDS_P1;SDS_P2;PMS_P1;PMS_P2;Temp;Humidity;BMP_temperature;BMP_pressure;BME280_temperature;BME280_humidity;BME280_pressure;Samples;Min_cycle;Max_cycle;Signal;HPM_P1;HPM_P2
2023/07/09 00:00:56;;;;;;;13.52;12.15;;;22.20;99.90;;;;;;5114929;27;20311;-43
2023/07/09 00:03:22;;;;;;;15.18;13.27;;;22.10;99.90;;;;;;5085750;28;20056;-40
2023/07/09 00:05:49;;;;;;;13.50;12.07;;;22.10;99.90;;;;;;5127618;27;20042;-40
2023/07/09 00:08:27;;;;;;;16.73;13.45;;;22.00;99.90;;;;;;5127829;27;20047;-41
2023/07/09 00:10:57;;;;;;;16.40;12.57;;;22.00;99.90;;;;;;5129211;27;20043;-41
2023/07/09 00:13:27;;;;;;;13.57;12.27;;;21.90;99.90;;;;;;5130625;27;20542;-40
2023/07/09 00:15:59;;;;;;;13.48;12.27;;;21.90;99.90;;;;;;5136845;27;20049;-41
2023/07/09 00:18:25;;;;;;;15.52;13.00;;;21.80;99.90;;;;;;5136625;27;20435;-41
2023/07/09 00:20:50;;;;;;;13.75;12.40;;;21.70;99.90;;;;;;5127520;27;20043;-40
2023/07/09 00:23:20;;;;;;;16.73;12.90;;;21.60;99.90;;;;;;5115550;27;20143;-40
2023/07/09 00:25:47;;;;;;;13.55;11.85;;;21.60;99.90;;;;;;5116046;27;20047;-42
2023/07/09 00:28:14;;;;;;;13.35;11.93;;;21.50;99.90;;;;;;5112919;27;20393;-40
2023/07/09 00:30:40;;;;;;;13.32;11.93;;;21.40;99.90;;;;;;5094424;27;20058;-41
2023/07/09 00:33:18;;;;;;;13.65;12.18;;;21.30;99.90;;;;;;5115211;27;20050;-40
2023/07/09 00:35:46;;;;;;;13.65;12.30;;;21.30;99.90;;;;;;5087256;27;20039;-41
2023/07/09 00:38:21;;;;;;;13.65;11.90;;;21.30;99.90;;;;;;5110173;27;20553;-41
2023/07/09 00:40:59;;;;;;;13.75;12.20;;;21.20;99.90;;;;;;5095187;27;20078;-40
2023/07/09 00:43:27;;;;;;;15.73;13.10;;;21.20;99.90;;;;;;5114707;27;20449;-39
2023/07/09 00:46:14;;;;;;;15.35;13.82;;;21.20;99.90;;;;;;5114869;27;20572;-41
2023/07/09 00:48:41;;;;;;;16.52;11.48;;;21.20;99.90;;;;;;5115024;27;20113;-41
2023/07/09 00:51:13;;;;;;;14.73;12.55;;;21.20;99.90;;;;;;5095377;27;20521;-40
2023/07/09 00:53:45;;;;;;;13.52;11.68;;;21.20;99.90;;;;;;5114853;27;20058;-40
2023/07/09 00:56:14;;;;;;;14.80;13.40;;;21.20;99.90;;;;;;5114414;27;20552;-41
2023/07/09 00:58:42;;;;;;;15.18;11.82;;;21.30;99.90;;;;;;5114914;27;20146;-42
2023/07/09 01:01:27;;;;;;;14.98;12.82;;;21.20;99.90;;;;;;5114860;27;20552;-42
2023/07/09 01:03:59;;;;;;;15.05;12.52;;;21.30;99.90;;;;;;5073232;28;20056;-41
2023/07/09 01:06:34;;;;;;;14.90;13.05;;;21.30;99.90;;;;;;5075551;28;20058;-39
2023/07/09 01:09:01;;;;;;;14.48;12.93;;;21.30;99.90;;;;;;5058544;28;20851;-40
2023/07/09 01:11:27;;;;;;;14.55;13.00;;;21.30;99.90;;;;;;5074777;28;20059;-40
2023/07/09 01:14:00;;;;;;;16.27;13.30;;;21.30;99.90;;;;;;5089170;28;20056;-40
2023/07/09 01:16:30;;;;;;;14.50;13.05;;;21.20;99.90;;;;;;5053956;28;20785;-41
2023/07/09 01:18:56;;;;;;;16.60;13.40;;;21.20;99.90;;;;;;5075596;28;20109;-41
2023/07/09 01:21:21;;;;;;;15.63;14.13;;;21.20;99.90;;;;;;5075499;28;20863;-40
2023/07/09 01:23:49;;;;;;;15.32;13.05;;;21.20;99.90;;;;;;5074803;28;20439;-40
2023/07/09 01:26:18;;;;;;;15.52;13.93;;;21.10;99.90;;;;;;5074688;28;20044;-40
2023/07/09 01:28:44;;;;;;;15.45;13.25;;;21.10;99.90;;;;;;5075271;28;20086;-39
2023/07/09 01:31:12;;;;;;;18.63;14.93;;;21.10;99.90;;;;;;5075034;28;20044;-41
2023/07/09 01:33:39;;;;;;;14.93;13.45;;;21.10;99.90;;;;;;5075388;28;20083;-40
2023/07/09 01:36:10;;;;;;;14.48;12.98;;;21.10;99.90;;;;;;5108261;27;20051;-39
2023/07/09 01:38:36;;;;;;;15.18;13.48;;;21.10;99.90;;;;;;5123927;27;20042;-40
2023/07/09 01:41:02;;;;;;;14.02;12.73;;;21.00;99.90;;;;;;5139080;27;20070;-41
2023/07/09 01:43:29;;;;;;;16.00;13.30;;;21.00;99.90;;;;;;5124013;27;20489;-39
2023/07/09 01:45:57;;;;;;;16.85;13.77;;;20.90;99.90;;;;;;5113162;27;20078;-40
2023/07/09 01:48:25;;;;;;;15.05;13.48;;;20.90;99.90;;;;;;5119276;27;20047;-42
2023/07/09 01:50:51;;;;;;;15.13;13.45;;;20.90;99.90;;;;;;5118266;27;20378;-39
2023/07/09 01:53:25;;;;;;;20.02;14.77;;;20.80;99.90;;;;;;5118538;27;20089;-40
2023/07/09 01:55:51;;;;;;;14.85;13.43;;;20.80;99.90;;;;;;5118612;27;20452;-39
2023/07/09 01:58:18;;;;;;;14.88;13.32;;;20.80;99.90;;;;;;5118850;27;20078;-40
2023/07/09 02:00:44;;;;;;;14.30;12.55;;;20.70;99.90;;;;;;5112172;27;20116;-39
2023/07/09 02:03:10;;;;;;;18.75;14.68;;;20.70;99.90;;;;;;5116469;27;20134;-40
2023/07/09 02:05:37;;;;;;;18.45;14.50;;;20.70;99.90;;;;;;5116171;27;20433;-42
2023/07/09 02:08:03;;;;;;;14.93;13.30;;;20.60;99.90;;;;;;5116874;27;20046;-40
2023/07/09 02:10:29;;;;;;;15.63;14.00;;;20.60;99.90;;;;;;5117413;27;20039;-43
2023/07/09 02:12:54;;;;;;;15.90;14.40;;;20.50;99.90;;;;;;5129601;27;20535;-42
2023/07/09 02:15:20;;;;;;;17.67;15.88;;;20.50;99.90;;;;;;5137791;27;20776;-40
2023/07/09 02:17:46;;;;;;;16.77;14.30;;;20.40;99.90;;;;;;5137978;27;20043;-39
2023/07/09 02:20:13;;;;;;;16.33;14.23;;;20.30;99.90;;;;;;5137077;27;20453;-40
2023/07/09 02:22:40;;;;;;;16.15;14.45;;;20.20;99.90;;;;;;5135889;27;20126;-39
2023/07/09 02:25:07;;;;;;;17.92;14.63;;;20.20;99.90;;;;;;5137033;27;20050;-40
2023/07/09 02:27:33;;;;;;;16.42;14.82;;;20.10;99.90;;;;;;5118380;27;20171;-42
2023/07/09 02:30:00;;;;;;;16.80;14.15;;;20.10;99.90;;;;;;5138308;27;20039;-40
2023/07/09 02:32:27;;;;;;;18.00;15.00;;;20.00;99.90;;;;;;5137978;27;20123;-43
2023/07/09 02:34:54;;;;;;;15.45;13.90;;;20.00;99.90;;;;;;5121686;27;20044;-40
2023/07/09 02:37:25;;;;;;;20.73;15.15;;;19.90;99.90;;;;;;5097874;27;20448;-40
2023/07/09 02:39:51;;;;;;;17.88;15.57;;;19.90;99.90;;;;;;5121272;27;20545;-40
2023/07/09 02:42:19;;;;;;;17.30;15.07;;;19.90;99.90;;;;;;5136696;27;20047;-40
2023/07/09 02:44:45;;;;;;;16.70;14.23;;;19.90;99.90;;;;;;5111407;27;20043;-40
2023/07/09 02:47:11;;;;;;;16.77;14.45;;;19.90;99.90;;;;;;5138233;27;20300;-40
2023/07/09 02:49:37;;;;;;;15.85;14.15;;;19.90;99.90;;;;;;5137554;27;20053;-41
2023/07/09 02:52:04;;;;;;;15.93;14.20;;;19.90;99.90;;;;;;5137584;27;20049;-40
2023/07/09 02:54:30;;;;;;;15.70;14.10;;;19.80;99.90;;;;;;5137711;27;20049;-39
2023/07/09 02:56:55;;;;;;;15.52;13.90;;;19.80;99.90;;;;;;5138518;27;20710;-40
2023/07/09 02:59:21;;;;;;;15.80;14.05;;;19.70;99.90;;;;;;5086490;27;20508;-40
2023/07/09 03:01:47;;;;;;;14.80;13.40;;;19.70;99.90;;;;;;5116571;27;20051;-40
2023/07/09 03:04:14;;;;;;;16.25;14.57;;;19.70;99.90;;;;;;5117479;27;20382;-40
2023/07/09 03:06:40;;;;;;;14.90;13.38;;;19.70;99.90;;;;;;5117013;27;20473;-41
2023/07/09 03:09:07;;;;;;;16.48;13.93;;;19.70;99.90;;;;;;5116948;27;20047;-41
2023/07/09 03:11:34;;;;;;;16.05;14.50;;;19.70;99.90;;;;;;5097534;27;20043;-41
2023/07/09 03:14:01;;;;;;;17.92;14.60;;;19.70;99.90;;;;;;5122120;27;20439;-40
2023/07/09 03:16:34;;;;;;;15.70;13.35;;;19.60;99.90;;;;;;5103535;27;20082;-40
2023/07/09 03:19:01;;;;;;;15.20;13.55;;;19.60;99.90;;;;;;5115769;27;20050;-42
2023/07/09 03:21:28;;;;;;;15.48;13.35;;;19.60;99.90;;;;;;5114880;27;20043;-40
2023/07/09 03:23:54;;;;;;;16.63;14.25;;;19.60;99.90;;;;;;5097125;27;20544;-41
2023/07/09 03:26:20;;;;;;;18.00;14.38;;;19.60;99.90;;;;;;5115813;27;20038;-39
2023/07/09 03:28:46;;;;;;;16.75;14.70;;;19.60;99.90;;;;;;5115737;27;20051;-43
2023/07/09 03:31:12;;;;;;;15.93;14.23;;;19.70;99.90;;;;;;5115060;27;20791;-39
2023/07/09 03:33:38;;;;;;;17.95;14.52;;;19.60;99.90;;;;;;5116593;27;20050;-39
2023/07/09 03:36:05;;;;;;;14.80;13.25;;;19.70;99.90;;;;;;5107080;27;20070;-41
2023/07/09 03:38:31;;;;;;;16.65;14.07;;;19.70;99.90;;;;;;5112982;27;20045;-41
2023/07/09 03:40:57;;;;;;;17.90;14.82;;;19.70;99.90;;;;;;5116054;27;20066;-41
2023/07/09 03:43:23;;;;;;;16.83;15.05;;;19.80;99.90;;;;;;5108408;27;20048;-40
2023/07/09 03:45:50;;;;;;;18.30;16.20;;;19.80;99.90;;;;;;5108962;27;20039;-39
2023/07/09 03:48:17;;;;;;;16.27;14.48;;;19.80;99.90;;;;;;5115604;27;20047;-40
2023/07/09 03:50:44;;;;;;;16.30;14.57;;;19.90;99.90;;;;;;5115366;27;20206;-42
2023/07/09 03:53:10;;;;;;;16.85;15.13;;;19.90;99.90;;;;;;5116254;27;20039;-39
2023/07/09 03:55:37;;;;;;;15.63;14.13;;;20.00;99.90;;;;;;5114997;27;20438;-42
2023/07/09 03:58:03;;;;;;;17.42;15.45;;;20.10;99.90;;;;;;5096596;27;20040;-40
2023/07/09 04:00:30;;;;;;;15.30;13.80;;;20.20;99.90;;;;;;5128893;27;20034;-40
2023/07/09 04:02:56;;;;;;;16.58;12.98;;;20.40;99.90;;;;;;5117639;27;20050;-39
2023/07/09 04:05:23;;;;;;;15.32;13.73;;;20.60;99.90;;;;;;5101159;27;20541;-41
2023/07/09 04:07:49;;;;;;;15.88;14.25;;;20.90;99.90;;;;;;5113539;27;20054;-40
2023/07/09 04:10:14;;;;;;;16.17;13.82;;;21.20;99.90;;;;;;5131527;27;20035;-40
2023/07/09 04:12:41;;;;;;;14.75;13.32;;;21.50;99.90;;;;;;5116957;27;20042;-40
2023/07/09 04:15:08;;;;;;;16.33;14.20;;;21.70;99.90;;;;;;5136166;27;20066;-40
2023/07/09 04:17:34;;;;;;;16.85;14.10;;;21.90;99.90;;;;;;5126124;27;20055;-41
2023/07/09 04:20:00;;;;;;;15.40;13.90;;;22.10;99.90;;;;;;5103197;27;20039;-41
2023/07/09 04:22:25;;;;;;;18.08;15.20;;;22.20;99.90;;;;;;5124916;27;20043;-41
2023/07/09 04:24:52;;;;;;;17.85;13.77;;;22.40;99.90;;;;;;5120301;27;20632;-40
2023/07/09 04:27:18;;;;;;;14.77;13.38;;;22.60;99.90;;;;;;5115302;27;20159;-40
2023/07/09 04:29:44;;;;;;;15.15;13.68;;;22.60;99.90;;;;;;5115114;27;20031;-42
2023/07/09 04:32:15;;;;;;;16.20;14.70;;;22.50;99.90;;;;;;5115363;27;20046;-39
2023/07/09 04:34:41;;;;;;;15.68;14.18;;;22.30;99.90;;;;;;5107971;27;20043;-43
2023/07/09 04:37:09;;;;;;;15.65;14.02;;;22.10;99.90;;;;;;5112636;27;20460;-40
2023/07/09 04:39:34;;;;;;;15.20;13.77;;;22.00;99.90;;;;;;5110612;27;20075;-40
2023/07/09 04:42:00;;;;;;;15.63;13.65;;;22.00;99.90;;;;;;5095716;27;20595;-40
2023/07/09 04:44:26;;;;;;;17.35;13.82;;;22.10;99.90;;;;;;5100593;27;20127;-40
2023/07/09 04:46:51;;;;;;;17.20;15.10;;;22.40;99.90;;;;;;5114025;27;20274;-40
2023/07/09 04:49:17;;;;;;;20.00;14.75;;;22.50;99.90;;;;;;5095811;27;20079;-41
2023/07/09 04:51:43;;;;;;;15.95;14.50;;;22.60;99.90;;;;;;5114795;27;20062;-39
2023/07/09 04:54:08;;;;;;;16.55;13.98;;;22.80;99.90;;;;;;5115520;27;20032;-40
2023/07/09 04:56:34;;;;;;;19.13;13.55;;;23.40;99.90;;;;;;5114347;27;20039;-41
2023/07/09 04:59:00;;;;;;;15.02;13.43;;;24.10;99.90;;;;;;5130353;27;20080;-40
2023/07/09 05:01:25;;;;;;;16.25;13.40;;;24.70;99.90;;;;;;5133316;27;20867;-41
2023/07/09 05:03:51;;;;;;;15.00;13.60;;;24.90;99.90;;;;;;5134417;27;20070;-41
2023/07/09 05:06:17;;;;;;;15.88;14.23;;;24.80;99.90;;;;;;5115741;27;20425;-41
2023/07/09 05:08:42;;;;;;;17.02;15.32;;;24.50;99.90;;;;;;5132552;27;20259;-40
2023/07/09 05:11:10;;;;;;;15.23;13.73;;;24.50;99.90;;;;;;5124524;27;20074;-43
2023/07/09 05:13:36;;;;;;;15.80;14.20;;;24.40;99.90;;;;;;5118779;27;20051;-41
2023/07/09 05:16:02;;;;;;;16.08;14.57;;;24.20;99.90;;;;;;5096211;28;20039;-40
2023/07/09 05:18:27;;;;;;;16.25;14.75;;;24.40;99.90;;;;;;5114466;27;20086;-40
2023/07/09 05:20:54;;;;;;;14.85;13.35;;;24.90;99.90;;;;;;5114751;27;20110;-43
2023/07/09 05:23:19;;;;;;;16.17;14.57;;;25.20;99.90;;;;;;5114754;27;20043;-42
2023/07/09 05:25:45;;;;;;;16.42;14.32;;;25.40;99.90;;;;;;5095129;28;20078;-41
2023/07/09 05:28:11;;;;;;;16.00;14.38;;;25.10;99.90;;;;;;5113510;27;20123;-41
2023/07/09 05:30:36;;;;;;;17.13;14.13;;;24.80;99.90;;;;;;5112128;27;20120;-42
2023/07/09 05:33:02;;;;;;;15.85;14.45;;;24.50;99.90;;;;;;5113161;27;20047;-41
2023/07/09 05:35:28;;;;;;;16.15;14.60;;;24.10;99.90;;;;;;5103328;27;20035;-40
2023/07/09 05:37:54;;;;;;;16.65;15.05;;;23.80;99.90;;;;;;5113371;27;20043;-42
2023/07/09 05:40:21;;;;;;;17.35;15.55;;;23.70;99.90;;;;;;5136176;27;20512;-42
2023/07/09 05:42:47;;;;;;;16.85;15.15;;;23.50;99.90;;;;;;5131510;27;20051;-40
2023/07/09 05:45:14;;;;;;;17.30;15.50;;;23.60;99.90;;;;;;5103247;27;20514;-40
2023/07/09 05:47:39;;;;;;;16.95;15.35;;;23.60;99.90;;;;;;5112425;27;20588;-39
2023/07/09 05:50:05;;;;;;;17.08;15.50;;;23.80;99.90;;;;;;5115111;27;20043;-39
2023/07/09 05:52:31;;;;;;;19.38;15.30;;;24.00;99.90;;;;;;5117134;27;20070;-42
2023/07/09 05:54:59;;;;;;;19.38;14.43;;;24.10;99.90;;;;;;5117357;27;20085;-41
2023/07/09 05:57:24;;;;;;;16.23;14.35;;;24.40;99.90;;;;;;5116250;27;20039;-40
2023/07/09 05:59:50;;;;;;;16.58;14.65;;;25.10;99.90;;;;;;5127550;27;20050;-40
2023/07/09 06:02:18;;;;;;;17.23;14.57;;;25.80;99.90;;;;;;5117306;27;20106;-41
2023/07/09 06:04:45;;;;;;;16.13;14.27;;;26.50;99.90;;;;;;5137873;27;20039;-42
2023/07/09 06:07:13;;;;;;;15.25;13.77;;;27.20;99.90;;;;;;5137717;27;20046;-41
2023/07/09 06:09:39;;;;;;;16.83;15.15;;;27.90;99.90;;;;;;5138951;27;20049;-40
2023/07/09 06:12:06;;;;;;;17.08;15.40;;;28.40;99.90;;;;;;5139021;27;20511;-40
2023/07/09 06:14:32;;;;;;;17.20;15.15;;;28.60;99.90;;;;;;5139651;27;20133;-42
2023/07/09 06:16:58;;;;;;;16.73;14.88;;;29.10;99.90;;;;;;5137673;27;20454;-41
2023/07/09 06:19:24;;;;;;;15.85;14.43;;;29.60;99.90;;;;;;5124327;27;20096;-42
2023/07/09 06:21:49;;;;;;;16.50;14.82;;;30.00;99.50;;;;;;5117424;27;20051;-40
2023/07/09 06:24:15;;;;;;;15.75;14.18;;;30.10;98.50;;;;;;5118352;27;20047;-41
2023/07/09 06:26:41;;;;;;;15.95;14.35;;;30.00;98.60;;;;;;5117065;27;20460;-41
2023/07/09 06:29:07;;;;;;;15.55;14.15;;;29.90;98.70;;;;;;5117988;27;20051;-42
2023/07/09 06:31:32;;;;;;;15.60;14.02;;;29.60;99.00;;;;;;5117241;27;20050;-42
2023/07/09 06:33:58;;;;;;;15.95;14.45;;;29.50;99.00;;;;;;5097888;27;20459;-44
2023/07/09 06:36:24;;;;;;;16.35;14.75;;;29.60;99.20;;;;;;5110906;27;20134;-42
2023/07/09 06:38:50;;;;;;;15.90;14.30;;;29.80;99.10;;;;;;5122182;27;20388;-43
2023/07/09 06:41:16;;;;;;;16.15;14.55;;;30.10;98.80;;;;;;5118717;27;20776;-42
2023/07/09 06:43:42;;;;;;;15.73;14.25;;;30.50;98.60;;;;;;5128313;27;20035;-44
2023/07/09 06:46:11;;;;;;;16.30;14.63;;;30.70;98.40;;;;;;5116727;27;20047;-41
2023/07/09 06:48:37;;;;;;;15.00;13.70;;;30.80;98.30;;;;;;5117848;27;20252;-42
2023/07/09 06:51:03;;;;;;;16.63;14.85;;;30.60;98.40;;;;;;5101603;27;20057;-42
2023/07/09 06:53:29;;;;;;;17.98;15.93;;;30.20;98.40;;;;;;5138220;27;20146;-43
2023/07/09 06:55:58;;;;;;;16.88;14.95;;;29.30;98.10;;;;;;5110662;27;20044;-41
2023/07/09 06:58:25;;;;;;;17.55;15.98;;;29.10;99.40;;;;;;5118529;27;20381;-43
2023/07/09 07:00:51;;;;;;;17.85;15.88;;;28.90;99.80;;;;;;5131295;27;20469;-43
2023/07/09 07:03:17;;;;;;;17.70;15.88;;;29.00;99.60;;;;;;5086380;28;20048;-41
2023/07/09 07:05:44;;;;;;;18.80;16.90;;;29.20;99.90;;;;;;5130848;27;20547;-41
2023/07/09 07:08:13;;;;;;;18.58;16.73;;;29.60;99.40;;;;;;5137335;27;20047;-41
2023/07/09 07:10:38;;;;;;;17.33;15.55;;;29.90;99.40;;;;;;5136988;27;20153;-41
2023/07/09 07:13:04;;;;;;;18.10;16.23;;;30.20;99.30;;;;;;5125606;27;20501;-41
2023/07/09 07:15:30;;;;;;;17.77;16.00;;;30.20;99.20;;;;;;5115252;27;20043;-42
2023/07/09 07:17:55;;;;;;;17.25;15.48;;;30.20;99.80;;;;;;5116428;27;20062;-41
2023/07/09 07:20:21;;;;;;;18.45;16.65;;;30.30;99.50;;;;;;5097065;27;20051;-40
2023/07/09 07:22:46;;;;;;;19.00;17.02;;;30.60;99.40;;;;;;5107131;27;20146;-41
2023/07/09 07:25:12;;;;;;;18.20;16.45;;;30.60;99.40;;;;;;5106970;27;20314;-43
2023/07/09 07:27:38;;;;;;;17.98;16.10;;;30.60;99.60;;;;;;5112003;27;20376;-40
2023/07/09 07:30:08;;;;;;;19.25;17.35;;;30.40;99.40;;;;;;5112023;27;20039;-41
2023/07/09 07:32:35;;;;;;;19.55;17.77;;;30.30;99.90;;;;;;5093558;27;20482;-42
2023/07/09 07:35:01;;;;;;;20.38;18.50;;;30.10;99.50;;;;;;5110602;27;20051;-45
2023/07/09 07:37:26;;;;;;;19.58;17.65;;;29.90;99.90;;;;;;5110120;27;20047;-43
2023/07/09 07:39:52;;;;;;;20.48;18.60;;;30.10;99.90;;;;;;5096264;27;20052;-41
2023/07/09 07:42:19;;;;;;;21.05;19.02;;;30.00;99.90;;;;;;5103335;27;20043;-40
2023/07/09 07:44:45;;;;;;;20.35;18.35;;;29.90;99.90;;;;;;5108005;27;20042;-41
2023/07/09 07:47:11;;;;;;;22.27;20.27;;;29.70;99.90;;;;;;5106615;27;20092;-41
2023/07/09 07:49:38;;;;;;;21.45;19.38;;;29.70;99.90;;;;;;5116431;27;20539;-42
2023/07/09 07:52:04;;;;;;;21.67;19.60;;;29.80;99.90;;;;;;5115732;27;20051;-41
2023/07/09 07:54:31;;;;;;;23.45;21.08;;;29.90;99.90;;;;;;5115806;27;20047;-42
2023/07/09 07:56:58;;;;;;;22.27;20.15;;;29.80;99.90;;;;;;5113890;27;20047;-42
2023/07/09 07:59:24;;;;;;;24.15;21.88;;;30.00;99.90;;;;;;5114880;27;20039;-41
2023/07/09 08:01:49;;;;;;;23.50;21.23;;;30.30;99.90;;;;;;5115500;27;20047;-40
2023/07/09 08:04:15;;;;;;;23.42;21.23;;;30.40;99.50;;;;;;5110023;27;20402;-41
2023/07/09 08:06:41;;;;;;;23.77;21.48;;;30.50;99.80;;;;;;5113798;27;20120;-41
2023/07/09 08:09:06;;;;;;;23.67;21.38;;;30.70;99.40;;;;;;5115842;27;20473;-40
2023/07/09 08:11:32;;;;;;;22.48;20.35;;;30.90;99.50;;;;;;5114911;27;20081;-41
2023/07/09 08:13:58;;;;;;;25.75;23.13;;;31.00;99.50;;;;;;5114138;27;20043;-42
2023/07/09 08:16:24;;;;;;;23.67;21.30;;;31.10;99.40;;;;;;5113347;27;20058;-41
2023/07/09 08:18:51;;;;;;;27.15;24.60;;;31.30;99.30;;;;;;5113482;27;20039;-45
2023/07/09 08:21:17;;;;;;;25.80;23.10;;;31.30;99.10;;;;;;5104443;27;20047;-42
2023/07/09 08:23:44;;;;;;;24.75;22.42;;;31.10;99.30;;;;;;5097108;27;20043;-41
2023/07/09 08:26:10;;;;;;;25.73;23.05;;;31.20;99.40;;;;;;5113001;27;20123;-41
2023/07/09 08:28:37;;;;;;;26.23;23.35;;;31.30;99.50;;;;;;5115095;27;20146;-42
2023/07/09 08:31:02;;;;;;;24.08;21.67;;;31.30;99.60;;;;;;5108349;27;20321;-40
2023/07/09 08:33:28;;;;;;;25.98;23.48;;;31.40;99.60;;;;;;5114595;27;20031;-41
2023/07/09 08:35:54;;;;;;;24.63;22.30;;;31.40;99.70;;;;;;5109743;27;20039;-41
2023/07/09 08:38:21;;;;;;;25.38;23.02;;;31.30;99.90;;;;;;5113994;27;20932;-40
2023/07/09 08:40:59;;;;;;;25.95;23.45;;;31.30;99.90;;;;;;5113924;27;20038;-44
2023/07/09 08:43:58;;;;;;;25.35;22.98;;;31.30;99.90;;;;;;5111926;27;20039;-41
2023/07/09 08:46:59;;;;;;;22.70;20.52;;;31.10;99.90;;;;;;5101374;27;20039;-43
2023/07/09 08:49:46;;;;;;;23.65;21.38;;;31.10;99.90;;;;;;5117582;27;20036;-41
2023/07/09 08:52:35;;;;;;;20.83;18.58;;;31.10;99.90;;;;;;5114696;27;20386;-41
2023/07/09 08:55:15;;;;;;;22.88;20.85;;;31.10;99.90;;;;;;5115274;27;20493;-42
2023/07/09 08:57:45;;;;;;;21.98;19.98;;;31.20;99.90;;;;;;5116537;27;20111;-41
2023/07/09 09:00:37;;;;;;;21.17;18.98;;;31.30;99.90;;;;;;5114617;27;20043;-42
2023/07/09 09:03:09;;;;;;;22.30;19.90;;;31.20;99.90;;;;;;5115403;27;20039;-42
2023/07/09 09:05:39;;;;;;;22.00;19.77;;;31.10;99.70;;;;;;5114825;27;20046;-41
2023/07/09 09:08:14;;;;;;;19.48;17.63;;;31.10;99.60;;;;;;5114984;27;20047;-41
2023/07/09 09:10:46;;;;;;;16.55;14.85;;;31.10;99.90;;;;;;5095554;28;20035;-43
2023/07/09 09:13:18;;;;;;;21.55;19.50;;;31.10;99.90;;;;;;5095742;28;20073;-41
2023/07/09 09:15:47;;;;;;;18.55;16.73;;;31.20;99.70;;;;;;5113803;27;20201;-42
2023/07/09 09:18:21;;;;;;;16.20;14.52;;;31.20;99.90;;;;;;5110088;27;20384;-41
2023/07/09 09:21:28;;;;;;;16.95;11.73;;;31.00;98.20;;;;;;5113780;27;20035;-40
2023/07/09 09:24:01;;;;;;;11.82;10.65;;;31.20;95.90;;;;;;4977476;28;20058;-40
2023/07/09 09:26:32;;;;;;;14.43;12.98;;;31.10;96.50;;;;;;5004214;28;20058;-41
2023/07/09 09:28:57;;;;;;;13.48;11.85;;;31.10;96.60;;;;;;5015045;28;20140;-40
2023/07/09 09:31:26;;;;;;;13.35;11.40;;;31.20;97.70;;;;;;5014240;28;20051;-42
2023/07/09 09:33:52;;;;;;;12.32;11.05;;;31.30;97.40;;;;;;5005176;28;20057;-40
2023/07/09 09:36:21;;;;;;;10.68;9.40;;;31.30;96.30;;;;;;5002930;28;20064;-41
2023/07/09 09:38:50;;;;;;;12.25;10.15;;;31.40;96.60;;;;;;5009470;28;20057;-41
2023/07/09 09:41:21;;;;;;;11.85;10.60;;;31.50;96.30;;;;;;5000242;28;20132;-41
2023/07/09 09:43:48;;;;;;;14.35;12.95;;;31.70;97.10;;;;;;5002351;28;20112;-41
2023/07/09 09:46:25;;;;;;;13.10;11.70;;;31.70;96.40;;;;;;4982640;28;20088;-41
2023/07/09 09:48:55;;;;;;;12.10;10.98;;;31.60;95.80;;;;;;5004211;28;20530;-42
2023/07/09 09:51:22;;;;;;;12.68;11.40;;;31.70;96.10;;;;;;5006109;28;20053;-42
2023/07/09 09:53:57;;;;;;;12.55;11.15;;;31.70;96.50;;;;;;4994536;28;20050;-42
2023/07/09 09:56:29;;;;;;;14.68;13.23;;;31.60;96.30;;;;;;5010003;28;20037;-42
2023/07/09 09:58:56;;;;;;;13.20;12.00;;;31.70;96.60;;;;;;5034259;27;20565;-42
2023/07/09 10:01:32;;;;;;;16.40;14.48;;;31.80;96.40;;;;;;5116467;27;20043;-41
2023/07/09 10:03:59;;;;;;;16.10;14.70;;;31.80;97.00;;;;;;5100360;27;20603;-44
2023/07/09 10:06:35;;;;;;;18.23;15.80;;;31.90;97.50;;;;;;5117091;27;20379;-40
2023/07/09 10:09:25;;;;;;;19.75;17.67;;;31.80;97.20;;;;;;5118440;27;20042;-41
2023/07/09 10:12:07;;;;;;;18.88;16.60;;;31.60;97.50;;;;;;5118341;27;20082;-40
2023/07/09 10:14:49;;;;;;;18.40;16.70;;;31.60;97.60;;;;;;5117168;27;20057;-43
2023/07/09 10:17:37;;;;;;;18.67;16.67;;;31.50;97.60;;;;;;5100004;27;20629;-41
2023/07/09 10:20:19;;;;;;;16.00;14.48;;;31.50;97.90;;;;;;5118352;27;20060;-42
2023/07/09 10:23:14;;;;;;;15.43;13.82;;;31.70;98.00;;;;;;5116858;27;20051;-42
2023/07/09 10:26:12;;;;;;;15.27;13.65;;;31.60;97.40;;;;;;5116765;27;20046;-41
2023/07/09 10:29:13;;;;;;;13.65;11.93;;;31.60;96.70;;;;;;5097022;27;20177;-42
2023/07/09 10:31:57;;;;;;;13.77;12.05;;;31.60;96.70;;;;;;5014484;28;20886;-41
2023/07/09 10:34:52;;;;;;;15.93;13.02;;;31.60;95.80;;;;;;5028469;28;20045;-42
2023/07/09 10:37:34;;;;;;;13.10;11.75;;;31.50;97.20;;;;;;5028462;28;20056;-41
2023/07/09 10:40:01;;;;;;;16.60;12.93;;;31.40;97.00;;;;;;5029289;28;20068;-40
2023/07/09 10:42:39;;;;;;;14.45;13.00;;;31.30;97.10;;;;;;5031137;28;20064;-42
2023/07/09 10:45:13;;;;;;;14.32;12.68;;;31.30;96.10;;;;;;5033844;28;20052;-40
2023/07/09 10:47:46;;;;;;;14.48;13.00;;;31.50;97.60;;;;;;5032101;28;20052;-43
2023/07/09 10:50:20;;;;;;;14.70;12.65;;;31.50;98.00;;;;;;5032070;28;20064;-41
2023/07/09 10:52:51;;;;;;;15.43;13.65;;;31.60;98.30;;;;;;5034720;28;20433;-41
2023/07/09 10:55:26;;;;;;;14.70;12.35;;;31.70;97.70;;;;;;5033251;28;20041;-40
2023/07/09 10:58:00;;;;;;;12.95;11.55;;;31.70;98.30;;;;;;5034455;28;20060;-41
2023/07/09 11:00:55;;;;;;;14.20;11.43;;;31.70;97.20;;;;;;5032031;28;20461;-43
2023/07/09 11:03:34;;;;;;;12.27;11.07;;;31.80;98.10;;;;;;5030245;28;20105;-42
2023/07/09 11:06:00;;;;;;;12.82;11.63;;;31.80;97.10;;;;;;5024132;28;20056;-41
2023/07/09 11:08:36;;;;;;;12.88;11.63;;;31.80;96.40;;;;;;5051630;27;20055;-43
2023/07/09 11:11:07;;;;;;;11.48;10.23;;;31.80;96.70;;;;;;5076812;28;20119;-41
2023/07/09 11:13:42;;;;;;;13.52;12.18;;;31.80;97.40;;;;;;5084087;27;20918;-42
2023/07/09 11:16:14;;;;;;;13.57;11.70;;;31.90;97.20;;;;;;5096554;27;20051;-40
2023/07/09 11:18:40;;;;;;;13.13;11.60;;;31.90;96.40;;;;;;5096256;27;20067;-42
2023/07/09 11:21:23;;;;;;;12.80;11.60;;;32.00;96.70;;;;;;5095804;27;20684;-42
2023/07/09 11:23:55;;;;;;;15.32;13.93;;;32.10;98.50;;;;;;5097674;27;20047;-41
2023/07/09 11:26:30;;;;;;;14.00;12.90;;;32.10;97.10;;;;;;5097820;27;20209;-41
2023/07/09 11:29:17;;;;;;;17.27;13.50;;;32.30;97.30;;;;;;5094155;27;20047;-42
2023/07/09 11:31:46;;;;;;;17.45;14.13;;;32.50;97.80;;;;;;5077383;28;20052;-40
2023/07/09 11:34:20;;;;;;;16.35;13.30;;;32.60;97.60;;;;;;5096436;27;20043;-41
2023/07/09 11:36:55;;;;;;;16.27;14.57;;;32.60;97.20;;;;;;5097048;27;20047;-43
2023/07/09 11:39:30;;;;;;;17.92;16.10;;;32.40;97.10;;;;;;5098580;27;20047;-42
2023/07/09 11:41:56;;;;;;;15.30;13.80;;;32.30;97.30;;;;;;5093000;27;20073;-42
2023/07/09 11:44:30;;;;;;;16.27;14.57;;;32.30;96.60;;;;;;5096705;27;20104;-42
2023/07/09 11:47:17;;;;;;;15.20;13.60;;;32.20;96.30;;;;;;5102094;27;20427;-43
2023/07/09 11:50:03;;;;;;;15.90;13.77;;;32.30;96.40;;;;;;5114101;27;20047;-40
2023/07/09 11:52:36;;;;;;;13.90;12.48;;;32.30;97.00;;;;;;5114526;27;20061;-41
2023/07/09 11:55:16;;;;;;;18.80;12.73;;;32.40;97.30;;;;;;5095431;27;20128;-42
2023/07/09 11:57:48;;;;;;;14.43;13.02;;;32.40;97.60;;;;;;5112821;27;20073;-41
2023/07/09 12:00:14;;;;;;;15.65;13.98;;;32.30;97.30;;;;;;5107116;27;20039;-40
2023/07/09 12:02:40;;;;;;;17.40;15.77;;;32.30;97.30;;;;;;5114352;27;20080;-41
2023/07/09 12:05:07;;;;;;;15.60;14.05;;;32.30;97.30;;;;;;5114458;27;20051;-41
2023/07/09 12:07:34;;;;;;;15.43;14.02;;;32.20;97.30;;;;;;5114235;27;20111;-43
2023/07/09 12:10:09;;;;;;;19.40;17.50;;;32.30;97.20;;;;;;5113186;27;20264;-41
2023/07/09 12:12:34;;;;;;;20.92;18.63;;;32.20;97.00;;;;;;5113953;27;20067;-42
2023/07/09 12:15:06;;;;;;;15.95;14.38;;;32.40;97.30;;;;;;5113252;27;20669;-44
2023/07/09 12:17:33;;;;;;;15.55;13.85;;;32.50;97.80;;;;;;5114316;27;20047;-45
2023/07/09 12:19:59;;;;;;;18.90;16.92;;;32.60;98.60;;;;;;5066773;27;20075;-43
2023/07/09 12:22:25;;;;;;;14.15;12.85;;;32.50;97.80;;;;;;5096580;27;20128;-41
2023/07/09 12:24:53;;;;;;;15.02;13.63;;;32.50;98.50;;;;;;5093124;27;20653;-42
2023/07/09 12:27:22;;;;;;;14.20;12.73;;;32.30;98.50;;;;;;5093259;27;20047;-41
2023/07/09 12:29:51;;;;;;;14.52;13.02;;;32.30;99.00;;;;;;5093969;27;20035;-43
2023/07/09 12:32:17;;;;;;;26.95;22.98;;;32.20;99.00;;;;;;5096850;27;20050;-42
2023/07/09 12:34:49;;;;;;;15.75;14.15;;;32.20;98.70;;;;;;5096763;27;20976;-44
2023/07/09 12:37:15;;;;;;;13.70;12.20;;;32.20;98.60;;;;;;5094775;27;20478;-42
2023/07/09 12:39:41;;;;;;;14.30;13.10;;;32.20;98.80;;;;;;5101831;27;20122;-40